sensor_id;sensor_type;location;lat;lon;timestamp;P1;durP1;ratioP1;P2;durP2;ratioP2
62863;SDS011;48954;59.950;11.014;2023-05-29T00:00:40;3.40;;;0.70;;
62863;SDS011;48954;59.950;11.014;2023-05-29T00:03:23;1.90;;;0.60;;
62863;SDS011;48954;59.950;11.014;2023-05-29T00:06:06;1.70;;;0.80;;
62863;SDS011;48954;59.950;11.014;2023-05-29T00:08:47;2.40;;;0.80;;
62863;SDS011;48954;59.950;11.014;2023-05-29T00:11:41;2.40;;;0.80;;
62863;SDS011;48954;59.950;11.014;2023-05-29T00:14:25;1.50;;;0.60;;
62863;SDS011;48954;59.950;11.014;2023-05-29T00:17:23;1.80;;;0.70;;
62863;SDS011;48954;59.950;11.014;2023-05-29T00:20:34;1.30;;;0.80;;
62863;SDS011;48954;59.950;11.014;2023-05-29T00:23:29;1.90;;;0.80;;
62863;SDS011;48954;59.950;11.014;2023-05-29T00:26:31;1.50;;;0.70;;
62863;SDS011;48954;59.950;11.014;2023-05-29T00:29:19;4.60;;;1.00;;
62863;SDS011;48954;59.950;11.014;2023-05-29T00:32:20;2.70;;;0.90;;
62863;SDS011;48954;59.950;11.014;2023-05-29T00:35:22;2.10;;;0.90;;
62863;SDS011;48954;59.950;11.014;2023-05-29T00:38:45;2.00;;;0.70;;
62863;SDS011;48954;59.950;11.014;2023-05-29T00:41:34;2.50;;;0.80;;
62863;SDS011;48954;59.950;11.014;2023-05-29T00:44:56;2.30;;;0.70;;
62863;SDS011;48954;59.950;11.014;2023-05-29T00:47:42;1.40;;;0.80;;
62863;SDS011;48954;59.950;11.014;2023-05-29T00:50:24;2.00;;;0.80;;
62863;SDS011;48954;59.950;11.014;2023-05-29T00:53:07;3.90;;;1.20;;
62863;SDS011;48954;59.950;11.014;2023-05-29T00:55:49;2.80;;;1.00;;
62863;SDS011;48954;59.950;11.014;2023-05-29T00:58:45;2.10;;;0.90;;
62863;SDS011;48954;59.950;11.014;2023-05-29T01:02:04;2.80;;;1.00;;
62863;SDS011;48954;59.950;11.014;2023-05-29T01:05:14;2.50;;;0.60;;
62863;SDS011;48954;59.950;11.014;2023-05-29T01:08:25;2.00;;;0.70;;
62863;SDS011;48954;59.950;11.014;2023-05-29T01:14:59;2.00;;;0.80;;
62863;SDS011;48954;59.950;11.014;2023-05-29T01:18:36;1.70;;;0.80;;
62863;SDS011;48954;59.950;11.014;2023-05-29T01:25:02;3.10;;;1.10;;
62863;SDS011;48954;59.950;11.014;2023-05-29T01:28:21;1.70;;;0.90;;
62863;SDS011;48954;59.950;11.014;2023-05-29T01:31:21;3.80;;;1.40;;
62863;SDS011;48954;59.950;11.014;2023-05-29T01:34:09;2.80;;;0.70;;
62863;SDS011;48954;59.950;11.014;2023-05-29T01:37:33;1.70;;;0.50;;
62863;SDS011;48954;59.950;11.014;2023-05-29T01:40:55;1.30;;;0.60;;
62863;SDS011;48954;59.950;11.014;2023-05-29T01:44:03;1.20;;;0.60;;
62863;SDS011;48954;59.950;11.014;2023-05-29T01:47:09;2.40;;;0.90;;
62863;SDS011;48954;59.950;11.014;2023-05-29T01:50:28;2.50;;;0.80;;
62863;SDS011;48954;59.950;11.014;2023-05-29T01:53:52;1.60;;;0.70;;
62863;SDS011;48954;59.950;11.014;2023-05-29T01:57:16;2.00;;;0.60;;
62863;SDS011;48954;59.950;11.014;2023-05-29T02:00:09;2.20;;;1.10;;
62863;SDS011;48954;59.950;11.014;2023-05-29T02:03:16;3.30;;;0.90;;
62863;SDS011;48954;59.950;11.014;2023-05-29T02:06:31;2.60;;;0.90;;
62863;SDS011;48954;59.950;11.014;2023-05-29T02:09:37;2.40;;;0.80;;
62863;SDS011;48954;59.950;11.014;2023-05-29T02:12:43;2.70;;;0.70;;
62863;SDS011;48954;59.950;11.014;2023-05-29T02:15:33;3.10;;;1.00;;
62863;SDS011;48954;59.950;11.014;2023-05-29T02:19:03;2.10;;;0.70;;
62863;SDS011;48954;59.950;11.014;2023-05-29T02:21:47;3.00;;;0.90;;
62863;SDS011;48954;59.950;11.014;2023-05-29T02:24:27;4.80;;;0.90;;
62863;SDS011;48954;59.950;11.014;2023-05-29T02:27:10;2.50;;;1.00;;
62863;SDS011;48954;59.950;11.014;2023-05-29T02:30:15;5.70;;;1.40;;
62863;SDS011;48954;59.950;11.014;2023-05-29T02:33:42;3.20;;;1.10;;
62863;SDS011;48954;59.950;11.014;2023-05-29T02:36:46;2.10;;;0.70;;
62863;SDS011;48954;59.950;11.014;2023-05-29T02:39:52;2.60;;;0.70;;
62863;SDS011;48954;59.950;11.014;2023-05-29T02:43:14;1.90;;;0.80;;
62863;SDS011;48954;59.950;11.014;2023-05-29T02:46:15;1.60;;;0.60;;
62863;SDS011;48954;59.950;11.014;2023-05-29T02:49:21;2.70;;;1.00;;
62863;SDS011;48954;59.950;11.014;2023-05-29T02:52:28;3.20;;;1.20;;
62863;SDS011;48954;59.950;11.014;2023-05-29T02:55:26;3.80;;;1.10;;
62863;SDS011;48954;59.950;11.014;2023-05-29T02:58:54;3.40;;;1.30;;
62863;SDS011;48954;59.950;11.014;2023-05-29T03:01:41;2.50;;;1.10;;
62863;SDS011;48954;59.950;11.014;2023-05-29T03:04:47;4.60;;;1.30;;
62863;SDS011;48954;59.950;11.014;2023-05-29T03:07:48;3.80;;;1.30;;
62863;SDS011;48954;59.950;11.014;2023-05-29T03:11:02;4.60;;;1.20;;
62863;SDS011;48954;59.950;11.014;2023-05-29T03:13:58;3.70;;;1.30;;
62863;SDS011;48954;59.950;11.014;2023-05-29T03:17:06;1.90;;;0.80;;
62863;SDS011;48954;59.950;11.014;2023-05-29T03:19:52;4.00;;;1.20;;
62863;SDS011;48954;59.950;11.014;2023-05-29T03:22:54;2.20;;;0.80;;
62863;SDS011;48954;59.950;11.014;2023-05-29T03:26:16;1.80;;;0.80;;
62863;SDS011;48954;59.950;11.014;2023-05-29T03:29:17;1.90;;;0.90;;
62863;SDS011;48954;59.950;11.014;2023-05-29T03:31:58;2.50;;;0.90;;
62863;SDS011;48954;59.950;11.014;2023-05-29T03:35:42;2.70;;;1.00;;
62863;SDS011;48954;59.950;11.014;2023-05-29T03:38:50;2.90;;;1.00;;
62863;SDS011;48954;59.950;11.014;2023-05-29T03:41:53;2.70;;;0.90;;
62863;SDS011;48954;59.950;11.014;2023-05-29T03:45:00;4.90;;;1.30;;
62863;SDS011;48954;59.950;11.014;2023-05-29T03:48:06;3.20;;;1.00;;
62863;SDS011;48954;59.950;11.014;2023-05-29T03:50:51;2.60;;;1.10;;
62863;SDS011;48954;59.950;11.014;2023-05-29T03:54:01;2.40;;;1.00;;
62863;SDS011;48954;59.950;11.014;2023-05-29T03:57:09;3.80;;;1.10;;
62863;SDS011;48954;59.950;11.014;2023-05-29T04:00:11;3.30;;;1.20;;
62863;SDS011;48954;59.950;11.014;2023-05-29T04:03:14;2.90;;;0.90;;
62863;SDS011;48954;59.950;11.014;2023-05-29T04:06:15;1.80;;;0.80;;
62863;SDS011;48954;59.950;11.014;2023-05-29T04:08:59;1.80;;;0.80;;
62863;SDS011;48954;59.950;11.014;2023-05-29T04:12:16;1.60;;;1.10;;
62863;SDS011;48954;59.950;11.014;2023-05-29T04:15:24;1.80;;;0.80;;
62863;SDS011;48954;59.950;11.014;2023-05-29T04:18:37;3.20;;;1.00;;
62863;SDS011;48954;59.950;11.014;2023-05-29T04:21:55;2.90;;;1.10;;
62863;SDS011;48954;59.950;11.014;2023-05-29T04:25:15;2.40;;;0.80;;
62863;SDS011;48954;59.950;11.014;2023-05-29T04:28:09;3.10;;;1.20;;
62863;SDS011;48954;59.950;11.014;2023-05-29T04:31:03;2.70;;;1.10;;
62863;SDS011;48954;59.950;11.014;2023-05-29T04:33:47;3.20;;;1.40;;
62863;SDS011;48954;59.950;11.014;2023-05-29T04:36:59;3.20;;;1.30;;
62863;SDS011;48954;59.950;11.014;2023-05-29T04:40:09;3.30;;;1.10;;
62863;SDS011;48954;59.950;11.014;2023-05-29T04:49:58;5.40;;;1.20;;
62863;SDS011;48954;59.950;11.014;2023-05-29T04:53:04;4.60;;;0.90;;
62863;SDS011;48954;59.950;11.014;2023-05-29T04:55:45;2.80;;;1.10;;
62863;SDS011;48954;59.950;11.014;2023-05-29T04:58:25;3.90;;;0.90;;
62863;SDS011;48954;59.950;11.014;2023-05-29T05:01:06;2.60;;;1.30;;
62863;SDS011;48954;59.950;11.014;2023-05-29T05:03:34;2.40;;;1.00;;
62863;SDS011;48954;59.950;11.014;2023-05-29T05:06:04;2.90;;;1.00;;
62863;SDS011;48954;59.950;11.014;2023-05-29T05:08:44;2.70;;;0.80;;
62863;SDS011;48954;59.950;11.014;2023-05-29T05:11:22;4.00;;;1.20;;
62863;SDS011;48954;59.950;11.014;2023-05-29T05:14:22;4.00;;;1.00;;
62863;SDS011;48954;59.950;11.014;2023-05-29T05:17:04;3.30;;;0.90;;
62863;SDS011;48954;59.950;11.014;2023-05-29T05:19:31;3.60;;;1.10;;
62863;SDS011;48954;59.950;11.014;2023-05-29T05:22:02;3.00;;;0.90;;
62863;SDS011;48954;59.950;11.014;2023-05-29T05:24:43;2.20;;;1.00;;
62863;SDS011;48954;59.950;11.014;2023-05-29T05:27:27;3.10;;;1.10;;
62863;SDS011;48954;59.950;11.014;2023-05-29T05:30:27;2.80;;;1.20;;
62863;SDS011;48954;59.950;11.014;2023-05-29T05:33:17;8.70;;;2.20;;
62863;SDS011;48954;59.950;11.014;2023-05-29T05:36:05;3.40;;;1.10;;
62863;SDS011;48954;59.950;11.014;2023-05-29T05:38:46;3.10;;;1.10;;
62863;SDS011;48954;59.950;11.014;2023-05-29T05:41:32;2.60;;;1.10;;
62863;SDS011;48954;59.950;11.014;2023-05-29T05:44:12;3.90;;;1.60;;
62863;SDS011;48954;59.950;11.014;2023-05-29T05:46:53;4.10;;;1.00;;
62863;SDS011;48954;59.950;11.014;2023-05-29T05:49:20;5.00;;;1.50;;
62863;SDS011;48954;59.950;11.014;2023-05-29T06:24:03;5.50;;;1.40;;
62863;SDS011;48954;59.950;11.014;2023-05-29T06:26:30;2.40;;;1.20;;
62863;SDS011;48954;59.950;11.014;2023-05-29T06:29:15;3.20;;;1.50;;
62863;SDS011;48954;59.950;11.014;2023-05-29T06:32:13;4.80;;;1.10;;
62863;SDS011;48954;59.950;11.014;2023-05-29T06:34:54;3.20;;;1.60;;
62863;SDS011;48954;59.950;11.014;2023-05-29T06:37:44;4.10;;;1.30;;
62863;SDS011;48954;59.950;11.014;2023-05-29T06:40:25;2.80;;;0.90;;
62863;SDS011;48954;59.950;11.014;2023-05-29T06:43:10;4.10;;;1.10;;
62863;SDS011;48954;59.950;11.014;2023-05-29T06:46:11;3.70;;;1.30;;
62863;SDS011;48954;59.950;11.014;2023-05-29T06:49:12;4.00;;;1.50;;
62863;SDS011;48954;59.950;11.014;2023-05-29T06:51:53;3.40;;;1.10;;
62863;SDS011;48954;59.950;11.014;2023-05-29T06:54:34;4.50;;;1.40;;
62863;SDS011;48954;59.950;11.014;2023-05-29T06:57:14;4.90;;;1.20;;
62863;SDS011;48954;59.950;11.014;2023-05-29T07:00:16;2.60;;;1.00;;
62863;SDS011;48954;59.950;11.014;2023-05-29T07:14:31;2.90;;;1.10;;
62863;SDS011;48954;59.950;11.014;2023-05-29T07:17:11;2.60;;;0.90;;
62863;SDS011;48954;59.950;11.014;2023-05-29T07:19:54;3.90;;;1.50;;
62863;SDS011;48954;59.950;11.014;2023-05-29T07:22:51;4.70;;;1.10;;
62863;SDS011;48954;59.950;11.014;2023-05-29T07:25:41;5.60;;;1.70;;
62863;SDS011;48954;59.950;11.014;2023-05-29T07:28:29;4.00;;;1.20;;
62863;SDS011;48954;59.950;11.014;2023-05-29T07:31:11;4.00;;;1.50;;
62863;SDS011;48954;59.950;11.014;2023-05-29T07:37:11;4.10;;;1.70;;
62863;SDS011;48954;59.950;11.014;2023-05-29T07:39:52;4.70;;;1.20;;
62863;SDS011;48954;59.950;11.014;2023-05-29T07:42:35;2.30;;;0.90;;
62863;SDS011;48954;59.950;11.014;2023-05-29T07:45:04;3.70;;;1.20;;
62863;SDS011;48954;59.950;11.014;2023-05-29T07:47:47;4.10;;;1.50;;
62863;SDS011;48954;59.950;11.014;2023-05-29T07:50:27;3.10;;;1.20;;
62863;SDS011;48954;59.950;11.014;2023-05-29T07:53:36;3.70;;;1.20;;
62863;SDS011;48954;59.950;11.014;2023-05-29T08:05:10;5.20;;;1.50;;
62863;SDS011;48954;59.950;11.014;2023-05-29T08:16:04;6.40;;;1.80;;
62863;SDS011;48954;59.950;11.014;2023-05-29T08:21:23;4.00;;;1.00;;
62863;SDS011;48954;59.950;11.014;2023-05-29T08:27:17;3.20;;;1.70;;
62863;SDS011;48954;59.950;11.014;2023-05-29T08:35:25;4.10;;;1.40;;
62863;SDS011;48954;59.950;11.014;2023-05-29T08:41:13;9.00;;;2.10;;
62863;SDS011;48954;59.950;11.014;2023-05-29T08:44:22;6.60;;;1.60;;
62863;SDS011;48954;59.950;11.014;2023-05-29T08:47:20;4.20;;;1.50;;
62863;SDS011;48954;59.950;11.014;2023-05-29T08:58:40;3.20;;;1.60;;
62863;SDS011;48954;59.950;11.014;2023-05-29T09:01:16;3.70;;;1.40;;
62863;SDS011;48954;59.950;11.014;2023-05-29T09:03:46;4.80;;;1.50;;
62863;SDS011;48954;59.950;11.014;2023-05-29T09:06:14;8.30;;;1.50;;
62863;SDS011;48954;59.950;11.014;2023-05-29T09:18:04;4.40;;;1.50;;
62863;SDS011;48954;59.950;11.014;2023-05-29T09:21:07;5.60;;;1.50;;
62863;SDS011;48954;59.950;11.014;2023-05-29T09:29:09;5.80;;;2.00;;
62863;SDS011;48954;59.950;11.014;2023-05-29T09:31:38;4.00;;;1.30;;
62863;SDS011;48954;59.950;11.014;2023-05-29T09:34:13;6.20;;;1.90;;
62863;SDS011;48954;59.950;11.014;2023-05-29T09:37:32;4.90;;;1.60;;
62863;SDS011;48954;59.950;11.014;2023-05-29T09:39:59;3.90;;;1.50;;
62863;SDS011;48954;59.950;11.014;2023-05-29T09:42:34;5.60;;;1.60;;
62863;SDS011;48954;59.950;11.014;2023-05-29T09:45:20;6.00;;;1.70;;
62863;SDS011;48954;59.950;11.014;2023-05-29T09:53:27;5.50;;;1.50;;
62863;SDS011;48954;59.950;11.014;2023-05-29T10:01:41;6.50;;;1.60;;
62863;SDS011;48954;59.950;11.014;2023-05-29T10:04:36;5.30;;;2.00;;
62863;SDS011;48954;59.950;11.014;2023-05-29T10:10:07;6.00;;;1.70;;
62863;SDS011;48954;59.950;11.014;2023-05-29T10:12:51;5.80;;;1.50;;
62863;SDS011;48954;59.950;11.014;2023-05-29T10:15:37;5.30;;;1.40;;
62863;SDS011;48954;59.950;11.014;2023-05-29T10:18:39;3.40;;;1.60;;
62863;SDS011;48954;59.950;11.014;2023-05-29T10:21:32;4.30;;;1.40;;
62863;SDS011;48954;59.950;11.014;2023-05-29T10:24:32;4.00;;;1.50;;
62863;SDS011;48954;59.950;11.014;2023-05-29T10:27:05;4.10;;;1.60;;
62863;SDS011;48954;59.950;11.014;2023-05-29T10:36:24;4.80;;;1.40;;
62863;SDS011;48954;59.950;11.014;2023-05-29T10:38:56;4.40;;;1.30;;
62863;SDS011;48954;59.950;11.014;2023-05-29T10:41:36;2.90;;;1.10;;
62863;SDS011;48954;59.950;11.014;2023-05-29T10:50:50;4.60;;;2.10;;
62863;SDS011;48954;59.950;11.014;2023-05-29T10:53:49;2.80;;;1.00;;
62863;SDS011;48954;59.950;11.014;2023-05-29T10:56:20;2.30;;;0.80;;
62863;SDS011;48954;59.950;11.014;2023-05-29T10:58:54;1.90;;;0.70;;
62863;SDS011;48954;59.950;11.014;2023-05-29T11:01:23;1.60;;;0.50;;
62863;SDS011;48954;59.950;11.014;2023-05-29T11:03:53;2.60;;;0.50;;
62863;SDS011;48954;59.950;11.014;2023-05-29T11:09:35;1.90;;;0.80;;
62863;SDS011;48954;59.950;11.014;2023-05-29T11:23:05;3.60;;;1.00;;
62863;SDS011;48954;59.950;11.014;2023-05-29T11:25:33;3.30;;;1.00;;
62863;SDS011;48954;59.950;11.014;2023-05-29T11:28:01;4.10;;;1.10;;
62863;SDS011;48954;59.950;11.014;2023-05-29T11:30:28;3.50;;;1.20;;
62863;SDS011;48954;59.950;11.014;2023-05-29T11:32:57;3.60;;;1.20;;
62863;SDS011;48954;59.950;11.014;2023-05-29T11:35:28;3.90;;;1.00;;
62863;SDS011;48954;59.950;11.014;2023-05-29T11:38:04;4.00;;;1.10;;
62863;SDS011;48954;59.950;11.014;2023-05-29T11:40:37;3.00;;;1.00;;
62863;SDS011;48954;59.950;11.014;2023-05-29T11:43:04;1.60;;;0.90;;
62863;SDS011;48954;59.950;11.014;2023-05-29T11:45:36;3.60;;;1.10;;
62863;SDS011;48954;59.950;11.014;2023-05-29T11:48:10;2.40;;;0.70;;
62863;SDS011;48954;59.950;11.014;2023-05-29T11:50:42;3.90;;;1.10;;
62863;SDS011;48954;59.950;11.014;2023-05-29T11:53:09;2.20;;;0.90;;
62863;SDS011;48954;59.950;11.014;2023-05-29T11:55:37;2.20;;;0.90;;
62863;SDS011;48954;59.950;11.014;2023-05-29T11:58:04;2.90;;;1.20;;
62863;SDS011;48954;59.950;11.014;2023-05-29T12:00:32;2.80;;;1.10;;
62863;SDS011;48954;59.950;11.014;2023-05-29T12:03:09;3.30;;;1.00;;
62863;SDS011;48954;59.950;11.014;2023-05-29T12:05:47;3.40;;;1.00;;
62863;SDS011;48954;59.950;11.014;2023-05-29T12:08:15;4.70;;;1.20;;
62863;SDS011;48954;59.950;11.014;2023-05-29T12:10:47;2.00;;;1.00;;
62863;SDS011;48954;59.950;11.014;2023-05-29T12:13:15;3.00;;;0.90;;
62863;SDS011;48954;59.950;11.014;2023-05-29T12:15:43;3.30;;;1.00;;
62863;SDS011;48954;59.950;11.014;2023-05-29T12:18:15;2.50;;;1.20;;
62863;SDS011;48954;59.950;11.014;2023-05-29T12:20:42;3.00;;;0.90;;
62863;SDS011;48954;59.950;11.014;2023-05-29T12:23:17;3.30;;;1.20;;
62863;SDS011;48954;59.950;11.014;2023-05-29T12:25:47;3.70;;;1.30;;
62863;SDS011;48954;59.950;11.014;2023-05-29T12:28:20;3.50;;;1.20;;
62863;SDS011;48954;59.950;11.014;2023-05-29T12:31:02;3.60;;;1.20;;
62863;SDS011;48954;59.950;11.014;2023-05-29T12:33:43;4.00;;;1.20;;
62863;SDS011;48954;59.950;11.014;2023-05-29T12:36:15;3.90;;;1.30;;
62863;SDS011;48954;59.950;11.014;2023-05-29T12:38:50;2.80;;;1.40;;
62863;SDS011;48954;59.950;11.014;2023-05-29T12:41:28;2.90;;;1.00;;
62863;SDS011;48954;59.950;11.014;2023-05-29T12:44:13;3.00;;;1.20;;
62863;SDS011;48954;59.950;11.014;2023-05-29T12:46:41;5.10;;;1.20;;
62863;SDS011;48954;59.950;11.014;2023-05-29T12:49:15;4.20;;;1.40;;
62863;SDS011;48954;59.950;11.014;2023-05-29T12:51:45;4.00;;;1.20;;
62863;SDS011;48954;59.950;11.014;2023-05-29T12:54:15;2.50;;;1.00;;
62863;SDS011;48954;59.950;11.014;2023-05-29T12:56:44;2.80;;;1.20;;
62863;SDS011;48954;59.950;11.014;2023-05-29T12:59:10;3.00;;;1.10;;
62863;SDS011;48954;59.950;11.014;2023-05-29T13:01:37;1.90;;;1.10;;
62863;SDS011;48954;59.950;11.014;2023-05-29T13:04:05;3.60;;;1.20;;
62863;SDS011;48954;59.950;11.014;2023-05-29T13:06:36;3.40;;;1.20;;
62863;SDS011;48954;59.950;11.014;2023-05-29T13:09:06;2.70;;;1.10;;
62863;SDS011;48954;59.950;11.014;2023-05-29T13:11:34;3.60;;;1.30;;
62863;SDS011;48954;59.950;11.014;2023-05-29T13:14:01;3.70;;;1.20;;
62863;SDS011;48954;59.950;11.014;2023-05-29T13:16:28;5.70;;;1.50;;
62863;SDS011;48954;59.950;11.014;2023-05-29T13:18:55;4.80;;;1.30;;
62863;SDS011;48954;59.950;11.014;2023-05-29T13:21:22;4.40;;;1.70;;
62863;SDS011;48954;59.950;11.014;2023-05-29T13:23:49;3.40;;;1.20;;
62863;SDS011;48954;59.950;11.014;2023-05-29T13:26:19;3.90;;;1.60;;
62863;SDS011;48954;59.950;11.014;2023-05-29T13:28:46;4.40;;;1.50;;
62863;SDS011;48954;59.950;11.014;2023-05-29T13:31:24;4.40;;;1.00;;
62863;SDS011;48954;59.950;11.014;2023-05-29T13:33:52;3.70;;;1.30;;
62863;SDS011;48954;59.950;11.014;2023-05-29T13:36:22;4.70;;;1.40;;
62863;SDS011;48954;59.950;11.014;2023-05-29T13:38:54;3.50;;;0.90;;
62863;SDS011;48954;59.950;11.014;2023-05-29T13:41:21;2.60;;;0.80;;
62863;SDS011;48954;59.950;11.014;2023-05-29T13:43:50;3.70;;;1.10;;
62863;SDS011;48954;59.950;11.014;2023-05-29T13:46:17;3.30;;;1.20;;
62863;SDS011;48954;59.950;11.014;2023-05-29T13:48:49;4.00;;;1.10;;
62863;SDS011;48954;59.950;11.014;2023-05-29T13:51:19;2.70;;;1.00;;
62863;SDS011;48954;59.950;11.014;2023-05-29T13:54:06;3.30;;;1.00;;
62863;SDS011;48954;59.950;11.014;2023-05-29T13:56:33;2.40;;;0.90;;
62863;SDS011;48954;59.950;11.014;2023-05-29T13:59:12;1.50;;;0.60;;
62863;SDS011;48954;59.950;11.014;2023-05-29T14:01:43;2.50;;;0.90;;
62863;SDS011;48954;59.950;11.014;2023-05-29T14:04:13;3.70;;;0.80;;
62863;SDS011;48954;59.950;11.014;2023-05-29T14:06:41;2.80;;;1.00;;
62863;SDS011;48954;59.950;11.014;2023-05-29T14:09:10;4.40;;;1.10;;
62863;SDS011;48954;59.950;11.014;2023-05-29T14:11:50;2.90;;;1.00;;
62863;SDS011;48954;59.950;11.014;2023-05-29T14:14:17;2.30;;;0.90;;
62863;SDS011;48954;59.950;11.014;2023-05-29T14:16:44;1.70;;;0.80;;
62863;SDS011;48954;59.950;11.014;2023-05-29T14:21:45;3.20;;;0.80;;
62863;SDS011;48954;59.950;11.014;2023-05-29T14:24:12;3.40;;;0.80;;
62863;SDS011;48954;59.950;11.014;2023-05-29T14:26:40;2.60;;;1.40;;
62863;SDS011;48954;59.950;11.014;2023-05-29T14:29:24;2.80;;;1.20;;
62863;SDS011;48954;59.950;11.014;2023-05-29T14:31:52;2.90;;;0.90;;
62863;SDS011;48954;59.950;11.014;2023-05-29T14:34:22;2.70;;;1.20;;
62863;SDS011;48954;59.950;11.014;2023-05-29T14:37:00;4.10;;;0.90;;
62863;SDS011;48954;59.950;11.014;2023-05-29T14:39:29;4.60;;;0.80;;
62863;SDS011;48954;59.950;11.014;2023-05-29T14:41:56;3.50;;;0.90;;
62863;SDS011;48954;59.950;11.014;2023-05-29T14:44:35;2.40;;;0.80;;
62863;SDS011;48954;59.950;11.014;2023-05-29T14:47:03;2.30;;;0.90;;
62863;SDS011;48954;59.950;11.014;2023-05-29T14:49:33;7.00;;;1.10;;
62863;SDS011;48954;59.950;11.014;2023-05-29T14:52:02;3.20;;;1.30;;
62863;SDS011;48954;59.950;11.014;2023-05-29T14:54:46;7.70;;;2.10;;
62863;SDS011;48954;59.950;11.014;2023-05-29T14:57:12;3.00;;;1.40;;
62863;SDS011;48954;59.950;11.014;2023-05-29T14:59:39;3.90;;;1.10;;
62863;SDS011;48954;59.950;11.014;2023-05-29T15:02:06;1.70;;;0.80;;
62863;SDS011;48954;59.950;11.014;2023-05-29T15:04:41;1.60;;;0.80;;
62863;SDS011;48954;59.950;11.014;2023-05-29T15:07:08;2.40;;;1.00;;
62863;SDS011;48954;59.950;11.014;2023-05-29T15:09:39;1.90;;;0.70;;
62863;SDS011;48954;59.950;11.014;2023-05-29T15:12:06;1.50;;;0.50;;
62863;SDS011;48954;59.950;11.014;2023-05-29T15:17:51;2.00;;;1.20;;
62863;SDS011;48954;59.950;11.014;2023-05-29T15:20:27;1.20;;;0.50;;
62863;SDS011;48954;59.950;11.014;2023-05-29T15:22:55;1.20;;;0.50;;
62863;SDS011;48954;59.950;11.014;2023-05-29T15:25:39;0.90;;;0.60;;
62863;SDS011;48954;59.950;11.014;2023-05-29T15:28:08;1.60;;;0.90;;
62863;SDS011;48954;59.950;11.014;2023-05-29T15:30:36;1.20;;;0.50;;
62863;SDS011;48954;59.950;11.014;2023-05-29T15:33:15;1.70;;;0.60;;
62863;SDS011;48954;59.950;11.014;2023-05-29T15:35:43;2.20;;;0.50;;
62863;SDS011;48954;59.950;11.014;2023-05-29T15:38:10;2.20;;;0.60;;
62863;SDS011;48954;59.950;11.014;2023-05-29T15:40:37;0.70;;;0.30;;
62863;SDS011;48954;59.950;11.014;2023-05-29T15:43:07;1.40;;;0.50;;
62863;SDS011;48954;59.950;11.014;2023-05-29T15:45:37;1.90;;;0.60;;
62863;SDS011;48954;59.950;11.014;2023-05-29T15:48:18;1.10;;;0.30;;
62863;SDS011;48954;59.950;11.014;2023-05-29T15:50:48;2.20;;;0.90;;
62863;SDS011;48954;59.950;11.014;2023-05-29T15:53:14;1.70;;;0.90;;
62863;SDS011;48954;59.950;11.014;2023-05-29T15:55:50;2.20;;;0.80;;
62863;SDS011;48954;59.950;11.014;2023-05-29T15:58:31;1.30;;;0.70;;
62863;SDS011;48954;59.950;11.014;2023-05-29T16:01:19;2.80;;;1.00;;
62863;SDS011;48954;59.950;11.014;2023-05-29T16:04:08;1.80;;;0.90;;
62863;SDS011;48954;59.950;11.014;2023-05-29T16:06:35;2.20;;;1.20;;
62863;SDS011;48954;59.950;11.014;2023-05-29T16:09:18;2.20;;;1.00;;
62863;SDS011;48954;59.950;11.014;2023-05-29T16:12:14;2.60;;;0.90;;
62863;SDS011;48954;59.950;11.014;2023-05-29T16:14:43;1.90;;;0.80;;
62863;SDS011;48954;59.950;11.014;2023-05-29T16:17:10;1.60;;;1.00;;
62863;SDS011;48954;59.950;11.014;2023-05-29T16:19:56;3.00;;;0.80;;
62863;SDS011;48954;59.950;11.014;2023-05-29T16:22:27;2.40;;;0.70;;
62863;SDS011;48954;59.950;11.014;2023-05-29T16:24:58;1.10;;;0.60;;
62863;SDS011;48954;59.950;11.014;2023-05-29T16:27:38;2.30;;;0.60;;
62863;SDS011;48954;59.950;11.014;2023-05-29T16:30:06;0.80;;;0.50;;
62863;SDS011;48954;59.950;11.014;2023-05-29T16:32:38;1.70;;;1.10;;
62863;SDS011;48954;59.950;11.014;2023-05-29T16:35:12;1.00;;;0.60;;
62863;SDS011;48954;59.950;11.014;2023-05-29T16:37:45;1.30;;;0.40;;
62863;SDS011;48954;59.950;11.014;2023-05-29T16:40:20;0.60;;;0.50;;
62863;SDS011;48954;59.950;11.014;2023-05-29T16:43:02;0.40;;;0.30;;
62863;SDS011;48954;59.950;11.014;2023-05-29T16:48:34;1.10;;;0.30;;
62863;SDS011;48954;59.950;11.014;2023-05-29T16:51:14;0.30;;;0.30;;
62863;SDS011;48954;59.950;11.014;2023-05-29T16:54:01;0.40;;;0.30;;
62863;SDS011;48954;59.950;11.014;2023-05-29T16:56:32;1.60;;;0.30;;
62863;SDS011;48954;59.950;11.014;2023-05-29T16:59:01;1.70;;;0.50;;
62863;SDS011;48954;59.950;11.014;2023-05-29T17:01:30;1.10;;;0.50;;
62863;SDS011;48954;59.950;11.014;2023-05-29T17:04:15;1.40;;;0.70;;
62863;SDS011;48954;59.950;11.014;2023-05-29T17:06:43;1.40;;;0.60;;
62863;SDS011;48954;59.950;11.014;2023-05-29T17:09:37;1.70;;;0.80;;
62863;SDS011;48954;59.950;11.014;2023-05-29T17:12:30;1.60;;;0.70;;
62863;SDS011;48954;59.950;11.014;2023-05-29T17:14:58;2.30;;;0.80;;
62863;SDS011;48954;59.950;11.014;2023-05-29T17:17:31;4.80;;;1.60;;
62863;SDS011;48954;59.950;11.014;2023-05-29T17:19:59;2.80;;;0.90;;
62863;SDS011;48954;59.950;11.014;2023-05-29T17:22:28;2.10;;;1.00;;
62863;SDS011;48954;59.950;11.014;2023-05-29T17:25:18;3.90;;;1.80;;
62863;SDS011;48954;59.950;11.014;2023-05-29T17:30:49;2.60;;;1.00;;
62863;SDS011;48954;59.950;11.014;2023-05-29T17:41:51;3.00;;;1.20;;
62863;SDS011;48954;59.950;11.014;2023-05-29T17:44:18;3.60;;;1.30;;
62863;SDS011;48954;59.950;11.014;2023-05-29T17:47:03;3.80;;;1.20;;
62863;SDS011;48954;59.950;11.014;2023-05-29T17:49:36;2.90;;;1.30;;
62863;SDS011;48954;59.950;11.014;2023-05-29T17:52:03;3.80;;;1.50;;
62863;SDS011;48954;59.950;11.014;2023-05-29T17:54:50;3.50;;;1.90;;
62863;SDS011;48954;59.950;11.014;2023-05-29T17:57:19;3.10;;;1.20;;
62863;SDS011;48954;59.950;11.014;2023-05-29T17:59:47;5.60;;;1.90;;
62863;SDS011;48954;59.950;11.014;2023-05-29T18:05:18;4.70;;;1.80;;
62863;SDS011;48954;59.950;11.014;2023-05-29T18:08:07;4.20;;;1.40;;
62863;SDS011;48954;59.950;11.014;2023-05-29T18:10:43;4.10;;;1.20;;
62863;SDS011;48954;59.950;11.014;2023-05-29T18:16:37;3.30;;;1.20;;
62863;SDS011;48954;59.950;11.014;2023-05-29T18:19:08;2.30;;;1.00;;
62863;SDS011;48954;59.950;11.014;2023-05-29T18:21:51;2.30;;;1.20;;
62863;SDS011;48954;59.950;11.014;2023-05-29T18:32:53;2.30;;;1.00;;
62863;SDS011;48954;59.950;11.014;2023-05-29T18:35:23;1.50;;;0.80;;
62863;SDS011;48954;59.950;11.014;2023-05-29T18:45:34;2.50;;;0.80;;
62863;SDS011;48954;59.950;11.014;2023-05-29T18:48:22;2.00;;;0.90;;
62863;SDS011;48954;59.950;11.014;2023-05-29T18:50:51;2.30;;;0.60;;
62863;SDS011;48954;59.950;11.014;2023-05-29T18:56:20;1.20;;;0.70;;
62863;SDS011;48954;59.950;11.014;2023-05-29T19:15:31;1.60;;;0.80;;
62863;SDS011;48954;59.950;11.014;2023-05-29T19:21:15;3.90;;;2.10;;
62863;SDS011;48954;59.950;11.014;2023-05-29T19:26:09;1.80;;;1.00;;
62863;SDS011;48954;59.950;11.014;2023-05-29T19:28:37;2.50;;;0.80;;
62863;SDS011;48954;59.950;11.014;2023-05-29T19:31:08;2.00;;;0.80;;
62863;SDS011;48954;59.950;11.014;2023-05-29T19:36:38;1.40;;;0.80;;
62863;SDS011;48954;59.950;11.014;2023-05-29T19:39:09;1.40;;;0.80;;
62863;SDS011;48954;59.950;11.014;2023-05-29T19:41:48;2.50;;;0.80;;
62863;SDS011;48954;59.950;11.014;2023-05-29T19:44:34;2.50;;;0.90;;
62863;SDS011;48954;59.950;11.014;2023-05-29T19:47:03;2.40;;;1.20;;
62863;SDS011;48954;59.950;11.014;2023-05-29T19:49:30;4.30;;;1.40;;
62863;SDS011;48954;59.950;11.014;2023-05-29T19:51:59;4.60;;;2.30;;
62863;SDS011;48954;59.950;11.014;2023-05-29T19:54:40;3.50;;;1.60;;